sensor_id;sensor_type;location;lat;lon;timestamp;P1;durP1;ratioP1;P2;durP2;ratioP2
3271;SDS011;1648;50.022;8.424;2023-09-07T00:12:42;6.37;;;4.80;;
3271;SDS011;1648;50.022;8.424;2023-09-07T00:27:45;6.63;;;5.00;;
3271;SDS011;1648;50.022;8.424;2023-09-07T00:42:48;8.13;;;5.00;;
3271;SDS011;1648;50.022;8.424;2023-09-07T00:57:53;5.17;;;4.23;;
3271;SDS011;1648;50.022;8.424;2023-09-07T01:12:58;7.90;;;5.87;;
3271;SDS011;1648;50.022;8.424;2023-09-07T01:28:04;7.80;;;6.07;;
3271;SDS011;1648;50.022;8.424;2023-09-07T01:58:51;5.93;;;4.83;;
3271;SDS011;1648;50.022;8.424;2023-09-07T02:14:15;7.73;;;5.07;;
3271;SDS011;1648;50.022;8.424;2023-09-07T02:29:29;8.90;;;5.67;;
3271;SDS011;1648;50.022;8.424;2023-09-07T02:44:32;8.57;;;6.73;;
3271;SDS011;1648;50.022;8.424;2023-09-07T02:59:37;7.33;;;5.33;;
3271;SDS011;1648;50.022;8.424;2023-09-07T03:14:40;12.27;;;6.00;;
3271;SDS011;1648;50.022;8.424;2023-09-07T03:29:45;6.63;;;5.60;;
3271;SDS011;1648;50.022;8.424;2023-09-07T03:44:49;9.50;;;6.53;;
3271;SDS011;1648;50.022;8.424;2023-09-07T03:59:53;8.30;;;5.70;;
3271;SDS011;1648;50.022;8.424;2023-09-07T04:14:57;12.40;;;6.93;;
3271;SDS011;1648;50.022;8.424;2023-09-07T04:30:01;10.03;;;6.90;;
3271;SDS011;1648;50.022;8.424;2023-09-07T04:45:08;10.10;;;7.33;;
3271;SDS011;1648;50.022;8.424;2023-09-07T05:00:15;10.87;;;7.90;;
3271;SDS011;1648;50.022;8.424;2023-09-07T05:15:19;12.03;;;7.07;;
3271;SDS011;1648;50.022;8.424;2023-09-07T05:30:23;14.63;;;8.00;;
3271;SDS011;1648;50.022;8.424;2023-09-07T05:45:26;12.00;;;7.43;;
3271;SDS011;1648;50.022;8.424;2023-09-07T06:15:55;11.07;;;7.77;;
3271;SDS011;1648;50.022;8.424;2023-09-07T06:30:58;13.07;;;7.07;;
3271;SDS011;1648;50.022;8.424;2023-09-07T06:46:05;7.67;;;5.73;;
3271;SDS011;1648;50.022;8.424;2023-09-07T07:01:09;6.77;;;5.30;;
3271;SDS011;1648;50.022;8.424;2023-09-07T07:16:13;8.20;;;5.87;;
3271;SDS011;1648;50.022;8.424;2023-09-07T07:31:16;11.27;;;5.73;;
3271;SDS011;1648;50.022;8.424;2023-09-07T07:46:29;7.60;;;5.73;;
3271;SDS011;1648;50.022;8.424;2023-09-07T08:01:33;7.30;;;6.20;;
3271;SDS011;1648;50.022;8.424;2023-09-07T08:16:38;11.60;;;5.87;;
3271;SDS011;1648;50.022;8.424;2023-09-07T08:31:42;10.33;;;6.33;;
3271;SDS011;1648;50.022;8.424;2023-09-07T08:46:46;8.07;;;5.80;;
3271;SDS011;1648;50.022;8.424;2023-09-07T09:01:54;9.53;;;6.30;;
3271;SDS011;1648;50.022;8.424;2023-09-07T09:17:00;9.13;;;6.00;;
3271;SDS011;1648;50.022;8.424;2023-09-07T09:32:04;6.57;;;5.20;;
3271;SDS011;1648;50.022;8.424;2023-09-07T09:47:08;6.20;;;5.43;;
3271;SDS011;1648;50.022;8.424;2023-09-07T10:02:13;6.70;;;5.30;;
3271;SDS011;1648;50.022;8.424;2023-09-07T10:17:22;8.23;;;5.67;;
3271;SDS011;1648;50.022;8.424;2023-09-07T10:32:27;5.93;;;4.80;;
3271;SDS011;1648;50.022;8.424;2023-09-07T10:47:57;8.10;;;5.13;;
3271;SDS011;1648;50.022;8.424;2023-09-07T11:03:10;7.27;;;5.90;;
3271;SDS011;1648;50.022;8.424;2023-09-07T11:18:13;6.47;;;5.60;;
3271;SDS011;1648;50.022;8.424;2023-09-07T11:33:16;7.40;;;5.90;;
3271;SDS011;1648;50.022;8.424;2023-09-07T11:48:20;7.80;;;5.80;;
3271;SDS011;1648;50.022;8.424;2023-09-07T12:03:23;11.33;;;5.70;;
3271;SDS011;1648;50.022;8.424;2023-09-07T12:18:26;7.70;;;5.27;;
3271;SDS011;1648;50.022;8.424;2023-09-07T12:33:31;7.63;;;5.80;;
3271;SDS011;1648;50.022;8.424;2023-09-07T12:48:35;8.60;;;5.23;;
3271;SDS011;1648;50.022;8.424;2023-09-07T13:03:38;6.20;;;4.70;;
3271;SDS011;1648;50.022;8.424;2023-09-07T13:18:42;5.97;;;4.87;;
3271;SDS011;1648;50.022;8.424;2023-09-07T13:33:45;8.97;;;5.00;;
3271;SDS011;1648;50.022;8.424;2023-09-07T13:48:51;6.90;;;4.93;;
3271;SDS011;1648;50.022;8.424;2023-09-07T14:03:54;5.00;;;4.43;;
3271;SDS011;1648;50.022;8.424;2023-09-07T14:18:58;6.40;;;5.30;;
3271;SDS011;1648;50.022;8.424;2023-09-07T14:34:01;12.63;;;5.00;;
3271;SDS011;1648;50.022;8.424;2023-09-07T14:49:04;6.20;;;5.17;;
3271;SDS011;1648;50.022;8.424;2023-09-07T15:04:07;4.90;;;4.40;;
3271;SDS011;1648;50.022;8.424;2023-09-07T15:19:11;7.40;;;5.40;;
3271;SDS011;1648;50.022;8.424;2023-09-07T15:34:14;4.57;;;4.00;;
3271;SDS011;1648;50.022;8.424;2023-09-07T15:49:17;5.27;;;4.43;;
3271;SDS011;1648;50.022;8.424;2023-09-07T16:04:22;7.27;;;5.23;;
3271;SDS011;1648;50.022;8.424;2023-09-07T16:19:28;6.77;;;4.77;;
3271;SDS011;1648;50.022;8.424;2023-09-07T16:34:31;5.90;;;4.30;;
3271;SDS011;1648;50.022;8.424;2023-09-07T16:49:34;10.07;;;4.70;;
3271;SDS011;1648;50.022;8.424;2023-09-07T17:04:38;8.20;;;4.93;;
3271;SDS011;1648;50.022;8.424;2023-09-07T17:19:43;6.83;;;4.63;;
3271;SDS011;1648;50.022;8.424;2023-09-07T17:34:46;6.53;;;4.90;;
3271;SDS011;1648;50.022;8.424;2023-09-07T17:49:50;11.93;;;5.40;;
3271;SDS011;1648;50.022;8.424;2023-09-07T18:04:56;7.10;;;5.30;;
3271;SDS011;1648;50.022;8.424;2023-09-07T18:20:02;14.37;;;5.47;;
3271;SDS011;1648;50.022;8.424;2023-09-07T18:35:19;7.40;;;5.57;;
3271;SDS011;1648;50.022;8.424;2023-09-07T18:50:22;12.87;;;6.37;;
3271;SDS011;1648;50.022;8.424;2023-09-07T19:05:27;10.50;;;6.07;;
3271;SDS011;1648;50.022;8.424;2023-09-07T19:20:34;9.43;;;5.80;;
3271;SDS011;1648;50.022;8.424;2023-09-07T19:35:44;8.67;;;5.93;;
3271;SDS011;1648;50.022;8.424;2023-09-07T19:50:52;10.70;;;6.77;;
3271;SDS011;1648;50.022;8.424;2023-09-07T20:05:56;11.00;;;6.23;;
3271;SDS011;1648;50.022;8.424;2023-09-07T20:21:08;16.27;;;7.80;;
3271;SDS011;1648;50.022;8.424;2023-09-07T20:36:11;11.80;;;6.80;;
3271;SDS011;1648;50.022;8.424;2023-09-07T20:51:15;11.57;;;7.87;;
3271;SDS011;1648;50.022;8.424;2023-09-07T21:06:19;14.80;;;7.20;;
3271;SDS011;1648;50.022;8.424;2023-09-07T21:21:22;11.23;;;8.40;;
3271;SDS011;1648;50.022;8.424;2023-09-07T21:36:25;15.97;;;8.70;;
3271;SDS011;1648;50.022;8.424;2023-09-07T21:51:34;14.87;;;10.60;;
3271;SDS011;1648;50.022;8.424;2023-09-07T22:06:38;13.20;;;8.23;;
3271;SDS011;1648;50.022;8.424;2023-09-07T22:21:41;11.20;;;7.00;;
3271;SDS011;1648;50.022;8.424;2023-09-07T22:36:45;8.03;;;6.30;;
3271;SDS011;1648;50.022;8.424;2023-09-07T22:51:51;11.97;;;6.70;;
3271;SDS011;1648;50.022;8.424;2023-09-07T23:06:54;17.43;;;7.77;;
3271;SDS011;1648;50.022;8.424;2023-09-07T23:21:58;8.90;;;6.33;;
3271;SDS011;1648;50.022;8.424;2023-09-07T23:37:02;8.67;;;7.03;;
3271;SDS011;1648;50.022;8.424;2023-09-07T23:52:06;10.90;;;6.70;;
